sensor_id;sensor_type;location;lat;lon;timestamp;P1;durP1;ratioP1;P2;durP2;ratioP2
5606;SDS011;2825;53.116;9.392;2022-09-09T00:01:49;18.50;;;16.50;;
5606;SDS011;2825;53.116;9.392;2022-09-09T00:04:29;20.20;;;15.83;;
5606;SDS011;2825;53.116;9.392;2022-09-09T00:09:54;17.20;;;15.40;;
5606;SDS011;2825;53.116;9.392;2022-09-09T00:16:00;18.70;;;16.70;;
5606;SDS011;2825;53.116;9.392;2022-09-09T00:18:46;17.40;;;15.57;;
5606;SDS011;2825;53.116;9.392;2022-09-09T00:21:28;17.27;;;15.20;;
5606;SDS011;2825;53.116;9.392;2022-09-09T00:24:00;19.30;;;16.10;;
5606;SDS011;2825;53.116;9.392;2022-09-09T00:32:14;17.77;;;15.93;;
5606;SDS011;2825;53.116;9.392;2022-09-09T00:34:54;15.90;;;14.40;;
5606;SDS011;2825;53.116;9.392;2022-09-09T00:37:28;17.00;;;15.30;;
5606;SDS011;2825;53.116;9.392;2022-09-09T00:39:57;17.53;;;15.73;;
5606;SDS011;2825;53.116;9.392;2022-09-09T00:42:37;20.37;;;17.07;;
5606;SDS011;2825;53.116;9.392;2022-09-09T00:47:51;17.93;;;16.07;;
5606;SDS011;2825;53.116;9.392;2022-09-09T00:58:30;18.80;;;16.20;;
5606;SDS011;2825;53.116;9.392;2022-09-09T01:01:03;16.63;;;14.93;;
5606;SDS011;2825;53.116;9.392;2022-09-09T01:03:42;19.60;;;16.70;;
5606;SDS011;2825;53.116;9.392;2022-09-09T01:08:55;18.57;;;16.60;;
5606;SDS011;2825;53.116;9.392;2022-09-09T01:11:46;19.07;;;17.07;;
5606;SDS011;2825;53.116;9.392;2022-09-09T01:16:56;18.83;;;16.80;;
5606;SDS011;2825;53.116;9.392;2022-09-09T01:19:41;20.20;;;18.10;;
5606;SDS011;2825;53.116;9.392;2022-09-09T01:22:33;18.77;;;16.80;;
5606;SDS011;2825;53.116;9.392;2022-09-09T01:25:22;18.50;;;16.50;;
5606;SDS011;2825;53.116;9.392;2022-09-09T01:28:20;19.67;;;16.30;;
5606;SDS011;2825;53.116;9.392;2022-09-09T01:30:50;21.20;;;16.50;;
5606;SDS011;2825;53.116;9.392;2022-09-09T01:33:16;19.70;;;17.67;;
5606;SDS011;2825;53.116;9.392;2022-09-09T01:35:46;21.10;;;19.00;;
5606;SDS011;2825;53.116;9.392;2022-09-09T01:38:19;21.23;;;17.67;;
5606;SDS011;2825;53.116;9.392;2022-09-09T01:40:45;20.10;;;16.03;;
5606;SDS011;2825;53.116;9.392;2022-09-09T01:43:11;19.53;;;16.90;;
5606;SDS011;2825;53.116;9.392;2022-09-09T01:45:38;17.37;;;15.57;;
5606;SDS011;2825;53.116;9.392;2022-09-09T01:48:06;18.27;;;16.47;;
5606;SDS011;2825;53.116;9.392;2022-09-09T01:50:31;17.77;;;15.63;;
5606;SDS011;2825;53.116;9.392;2022-09-09T01:52:58;17.03;;;14.70;;
5606;SDS011;2825;53.116;9.392;2022-09-09T01:55:29;17.70;;;15.73;;
5606;SDS011;2825;53.116;9.392;2022-09-09T02:03:45;16.80;;;15.00;;
5606;SDS011;2825;53.116;9.392;2022-09-09T02:06:30;17.30;;;15.50;;
5606;SDS011;2825;53.116;9.392;2022-09-09T02:09:00;18.20;;;16.40;;
5606;SDS011;2825;53.116;9.392;2022-09-09T02:11:29;15.37;;;13.83;;
5606;SDS011;2825;53.116;9.392;2022-09-09T02:14:06;15.97;;;14.30;;
5606;SDS011;2825;53.116;9.392;2022-09-09T02:19:21;16.83;;;15.23;;
5606;SDS011;2825;53.116;9.392;2022-09-09T02:21:56;15.43;;;13.93;;
5606;SDS011;2825;53.116;9.392;2022-09-09T02:24:24;17.73;;;14.97;;
5606;SDS011;2825;53.116;9.392;2022-09-09T02:26:52;16.90;;;15.13;;
5606;SDS011;2825;53.116;9.392;2022-09-09T02:29:22;20.53;;;14.47;;
5606;SDS011;2825;53.116;9.392;2022-09-09T02:31:52;16.73;;;14.80;;
5606;SDS011;2825;53.116;9.392;2022-09-09T02:34:21;19.60;;;14.37;;
5606;SDS011;2825;53.116;9.392;2022-09-09T02:36:49;16.40;;;14.70;;
5606;SDS011;2825;53.116;9.392;2022-09-09T02:39:18;16.17;;;14.47;;
5606;SDS011;2825;53.116;9.392;2022-09-09T02:41:44;17.17;;;15.37;;
5606;SDS011;2825;53.116;9.392;2022-09-09T02:44:13;16.73;;;14.50;;
5606;SDS011;2825;53.116;9.392;2022-09-09T02:46:58;15.00;;;13.50;;
5606;SDS011;2825;53.116;9.392;2022-09-09T02:55:13;17.13;;;15.33;;
5606;SDS011;2825;53.116;9.392;2022-09-09T02:57:48;15.33;;;13.83;;
5606;SDS011;2825;53.116;9.392;2022-09-09T03:00:15;15.07;;;12.97;;
5606;SDS011;2825;53.116;9.392;2022-09-09T03:02:41;14.67;;;12.97;;
5606;SDS011;2825;53.116;9.392;2022-09-09T03:05:07;14.13;;;12.73;;
5606;SDS011;2825;53.116;9.392;2022-09-09T03:07:33;15.87;;;14.37;;
5606;SDS011;2825;53.116;9.392;2022-09-09T03:09:58;16.00;;;13.00;;
5606;SDS011;2825;53.116;9.392;2022-09-09T03:12:24;13.53;;;12.13;;
5606;SDS011;2825;53.116;9.392;2022-09-09T03:14:50;13.23;;;11.87;;
5606;SDS011;2825;53.116;9.392;2022-09-09T03:17:15;16.63;;;12.70;;
5606;SDS011;2825;53.116;9.392;2022-09-09T03:19:41;12.53;;;11.40;;
5606;SDS011;2825;53.116;9.392;2022-09-09T03:22:09;14.87;;;11.43;;
5606;SDS011;2825;53.116;9.392;2022-09-09T03:24:35;13.73;;;11.50;;
5606;SDS011;2825;53.116;9.392;2022-09-09T03:27:00;12.10;;;10.90;;
5606;SDS011;2825;53.116;9.392;2022-09-09T03:29:26;12.30;;;11.10;;
5606;SDS011;2825;53.116;9.392;2022-09-09T03:31:52;12.03;;;10.80;;
5606;SDS011;2825;53.116;9.392;2022-09-09T03:34:17;11.10;;;10.03;;
5606;SDS011;2825;53.116;9.392;2022-09-09T03:36:43;11.13;;;10.03;;
5606;SDS011;2825;53.116;9.392;2022-09-09T03:39:09;12.77;;;11.40;;
5606;SDS011;2825;53.116;9.392;2022-09-09T03:41:35;11.20;;;10.20;;
5606;SDS011;2825;53.116;9.392;2022-09-09T03:44:02;11.00;;;9.90;;
5606;SDS011;2825;53.116;9.392;2022-09-09T03:46:28;10.57;;;9.40;;
5606;SDS011;2825;53.116;9.392;2022-09-09T03:48:54;12.70;;;11.07;;
5606;SDS011;2825;53.116;9.392;2022-09-09T03:51:20;10.93;;;9.83;;
5606;SDS011;2825;53.116;9.392;2022-09-09T03:53:48;15.67;;;8.90;;
5606;SDS011;2825;53.116;9.392;2022-09-09T03:56:14;9.57;;;8.67;;
5606;SDS011;2825;53.116;9.392;2022-09-09T03:58:40;11.50;;;10.27;;
5606;SDS011;2825;53.116;9.392;2022-09-09T04:01:06;10.20;;;9.23;;
5606;SDS011;2825;53.116;9.392;2022-09-09T04:03:34;9.90;;;8.90;;
5606;SDS011;2825;53.116;9.392;2022-09-09T04:06:01;10.70;;;9.20;;
5606;SDS011;2825;53.116;9.392;2022-09-09T04:08:29;9.87;;;8.87;;
5606;SDS011;2825;53.116;9.392;2022-09-09T04:10:58;14.57;;;9.30;;
5606;SDS011;2825;53.116;9.392;2022-09-09T04:13:27;9.80;;;8.90;;
5606;SDS011;2825;53.116;9.392;2022-09-09T04:15:53;8.57;;;7.30;;
5606;SDS011;2825;53.116;9.392;2022-09-09T04:18:21;9.10;;;8.20;;
5606;SDS011;2825;53.116;9.392;2022-09-09T04:20:47;8.80;;;7.90;;
5606;SDS011;2825;53.116;9.392;2022-09-09T04:23:14;8.20;;;7.33;;
5606;SDS011;2825;53.116;9.392;2022-09-09T04:25:44;9.10;;;8.20;;
5606;SDS011;2825;53.116;9.392;2022-09-09T04:28:11;7.77;;;7.00;;
5606;SDS011;2825;53.116;9.392;2022-09-09T04:30:38;8.40;;;7.60;;
5606;SDS011;2825;53.116;9.392;2022-09-09T04:33:05;8.90;;;8.10;;
5606;SDS011;2825;53.116;9.392;2022-09-09T04:35:31;7.80;;;7.00;;
5606;SDS011;2825;53.116;9.392;2022-09-09T04:37:58;7.97;;;7.27;;
5606;SDS011;2825;53.116;9.392;2022-09-09T04:40:23;8.27;;;7.47;;
5606;SDS011;2825;53.116;9.392;2022-09-09T04:42:50;9.10;;;7.57;;
5606;SDS011;2825;53.116;9.392;2022-09-09T04:45:16;8.47;;;7.20;;
5606;SDS011;2825;53.116;9.392;2022-09-09T04:47:43;9.03;;;6.10;;
5606;SDS011;2825;53.116;9.392;2022-09-09T04:50:09;7.53;;;6.63;;
5606;SDS011;2825;53.116;9.392;2022-09-09T04:52:35;7.20;;;6.60;;
5606;SDS011;2825;53.116;9.392;2022-09-09T04:55:01;6.80;;;6.13;;
5606;SDS011;2825;53.116;9.392;2022-09-09T04:57:27;7.20;;;6.50;;
5606;SDS011;2825;53.116;9.392;2022-09-09T04:59:53;5.63;;;5.13;;
5606;SDS011;2825;53.116;9.392;2022-09-09T05:02:19;7.57;;;6.07;;
5606;SDS011;2825;53.116;9.392;2022-09-09T05:04:45;8.80;;;7.00;;
5606;SDS011;2825;53.116;9.392;2022-09-09T05:07:10;7.13;;;6.00;;
5606;SDS011;2825;53.116;9.392;2022-09-09T05:09:36;7.67;;;5.70;;
5606;SDS011;2825;53.116;9.392;2022-09-09T05:12:02;7.77;;;5.90;;
5606;SDS011;2825;53.116;9.392;2022-09-09T05:14:28;6.80;;;5.40;;
5606;SDS011;2825;53.116;9.392;2022-09-09T05:16:55;6.10;;;4.90;;
5606;SDS011;2825;53.116;9.392;2022-09-09T05:19:21;13.40;;;5.80;;
5606;SDS011;2825;53.116;9.392;2022-09-09T05:21:47;6.03;;;5.53;;
5606;SDS011;2825;53.116;9.392;2022-09-09T05:24:13;6.53;;;5.37;;
5606;SDS011;2825;53.116;9.392;2022-09-09T05:26:39;5.83;;;5.33;;
5606;SDS011;2825;53.116;9.392;2022-09-09T05:29:05;8.30;;;4.80;;
5606;SDS011;2825;53.116;9.392;2022-09-09T05:31:31;6.80;;;5.43;;
5606;SDS011;2825;53.116;9.392;2022-09-09T05:33:57;6.53;;;5.27;;
5606;SDS011;2825;53.116;9.392;2022-09-09T05:36:24;8.87;;;5.43;;
5606;SDS011;2825;53.116;9.392;2022-09-09T05:38:50;8.97;;;6.40;;
5606;SDS011;2825;53.116;9.392;2022-09-09T05:41:16;7.43;;;4.90;;
5606;SDS011;2825;53.116;9.392;2022-09-09T05:43:43;5.23;;;4.73;;
5606;SDS011;2825;53.116;9.392;2022-09-09T05:46:16;9.10;;;6.63;;
5606;SDS011;2825;53.116;9.392;2022-09-09T05:48:46;9.10;;;5.77;;
5606;SDS011;2825;53.116;9.392;2022-09-09T05:51:17;6.70;;;5.03;;
5606;SDS011;2825;53.116;9.392;2022-09-09T05:53:45;6.43;;;5.10;;
5606;SDS011;2825;53.116;9.392;2022-09-09T05:56:15;5.90;;;5.30;;
5606;SDS011;2825;53.116;9.392;2022-09-09T05:58:43;6.37;;;5.30;;
5606;SDS011;2825;53.116;9.392;2022-09-09T06:03:37;7.87;;;5.70;;
5606;SDS011;2825;53.116;9.392;2022-09-09T06:06:05;6.63;;;4.43;;
5606;SDS011;2825;53.116;9.392;2022-09-09T06:08:43;5.70;;;5.10;;
5606;SDS011;2825;53.116;9.392;2022-09-09T06:13:46;8.20;;;5.33;;
5606;SDS011;2825;53.116;9.392;2022-09-09T06:16:14;6.97;;;5.87;;
5606;SDS011;2825;53.116;9.392;2022-09-09T06:18:42;9.50;;;5.33;;
5606;SDS011;2825;53.116;9.392;2022-09-09T06:21:14;6.90;;;4.80;;
5606;SDS011;2825;53.116;9.392;2022-09-09T06:23:41;6.17;;;4.70;;
5606;SDS011;2825;53.116;9.392;2022-09-09T06:28:37;13.17;;;5.23;;
5606;SDS011;2825;53.116;9.392;2022-09-09T06:31:07;6.13;;;5.20;;
5606;SDS011;2825;53.116;9.392;2022-09-09T06:33:35;6.87;;;4.90;;
5606;SDS011;2825;53.116;9.392;2022-09-09T06:36:04;4.77;;;4.23;;
5606;SDS011;2825;53.116;9.392;2022-09-09T06:38:30;9.83;;;6.27;;
5606;SDS011;2825;53.116;9.392;2022-09-09T06:40:57;5.87;;;4.83;;
5606;SDS011;2825;53.116;9.392;2022-09-09T06:43:27;9.43;;;5.27;;
5606;SDS011;2825;53.116;9.392;2022-09-09T06:46:04;6.97;;;5.57;;
5606;SDS011;2825;53.116;9.392;2022-09-09T06:48:33;6.20;;;5.23;;
5606;SDS011;2825;53.116;9.392;2022-09-09T06:53:46;6.33;;;4.30;;
5606;SDS011;2825;53.116;9.392;2022-09-09T06:56:22;8.40;;;5.03;;
5606;SDS011;2825;53.116;9.392;2022-09-09T06:58:49;5.47;;;4.97;;
5606;SDS011;2825;53.116;9.392;2022-09-09T07:01:17;7.13;;;4.67;;
5606;SDS011;2825;53.116;9.392;2022-09-09T07:03:48;5.87;;;5.37;;
5606;SDS011;2825;53.116;9.392;2022-09-09T07:06:19;6.57;;;5.90;;
5606;SDS011;2825;53.116;9.392;2022-09-09T07:08:50;6.73;;;5.53;;
5606;SDS011;2825;53.116;9.392;2022-09-09T07:11:17;8.03;;;4.83;;
5606;SDS011;2825;53.116;9.392;2022-09-09T07:13:44;6.23;;;4.40;;
5606;SDS011;2825;53.116;9.392;2022-09-09T07:16:11;6.60;;;4.83;;
5606;SDS011;2825;53.116;9.392;2022-09-09T07:18:38;5.70;;;5.20;;
5606;SDS011;2825;53.116;9.392;2022-09-09T07:21:05;9.33;;;5.50;;
5606;SDS011;2825;53.116;9.392;2022-09-09T07:23:31;7.90;;;6.40;;
5606;SDS011;2825;53.116;9.392;2022-09-09T07:25:57;7.67;;;5.40;;
5606;SDS011;2825;53.116;9.392;2022-09-09T07:28:24;6.67;;;5.80;;
5606;SDS011;2825;53.116;9.392;2022-09-09T07:31:00;5.00;;;4.50;;
5606;SDS011;2825;53.116;9.392;2022-09-09T07:33:30;6.60;;;5.07;;
5606;SDS011;2825;53.116;9.392;2022-09-09T07:38:40;7.90;;;5.60;;
5606;SDS011;2825;53.116;9.392;2022-09-09T07:41:09;6.60;;;4.90;;
5606;SDS011;2825;53.116;9.392;2022-09-09T07:43:39;5.47;;;4.97;;
5606;SDS011;2825;53.116;9.392;2022-09-09T07:46:06;5.53;;;5.13;;
5606;SDS011;2825;53.116;9.392;2022-09-09T07:48:32;13.80;;;5.97;;
5606;SDS011;2825;53.116;9.392;2022-09-09T07:51:03;9.97;;;5.27;;
5606;SDS011;2825;53.116;9.392;2022-09-09T07:53:34;7.53;;;6.07;;
5606;SDS011;2825;53.116;9.392;2022-09-09T07:56:09;7.20;;;5.60;;
5606;SDS011;2825;53.116;9.392;2022-09-09T07:58:36;6.67;;;5.03;;
5606;SDS011;2825;53.116;9.392;2022-09-09T08:01:10;9.07;;;4.63;;
5606;SDS011;2825;53.116;9.392;2022-09-09T08:03:44;6.60;;;4.47;;
5606;SDS011;2825;53.116;9.392;2022-09-09T08:06:11;8.17;;;4.53;;
5606;SDS011;2825;53.116;9.392;2022-09-09T08:08:38;7.13;;;4.93;;
5606;SDS011;2825;53.116;9.392;2022-09-09T08:11:08;6.53;;;4.40;;
5606;SDS011;2825;53.116;9.392;2022-09-09T08:13:36;6.50;;;4.27;;
5606;SDS011;2825;53.116;9.392;2022-09-09T08:16:25;5.07;;;3.63;;
5606;SDS011;2825;53.116;9.392;2022-09-09T08:18:53;6.20;;;3.67;;
5606;SDS011;2825;53.116;9.392;2022-09-09T08:21:30;4.77;;;4.27;;
5606;SDS011;2825;53.116;9.392;2022-09-09T08:23:58;5.23;;;4.00;;
5606;SDS011;2825;53.116;9.392;2022-09-09T08:26:26;6.73;;;5.13;;
5606;SDS011;2825;53.116;9.392;2022-09-09T08:28:54;4.93;;;4.10;;
5606;SDS011;2825;53.116;9.392;2022-09-09T08:31:31;3.87;;;3.50;;
5606;SDS011;2825;53.116;9.392;2022-09-09T08:33:59;8.47;;;3.50;;
5606;SDS011;2825;53.116;9.392;2022-09-09T08:36:27;6.53;;;3.90;;
5606;SDS011;2825;53.116;9.392;2022-09-09T08:38:55;4.50;;;3.50;;
5606;SDS011;2825;53.116;9.392;2022-09-09T08:46:46;6.40;;;2.77;;
5606;SDS011;2825;53.116;9.392;2022-09-09T08:52:07;4.50;;;3.00;;
5606;SDS011;2825;53.116;9.392;2022-09-09T08:54:41;6.07;;;3.17;;
5606;SDS011;2825;53.116;9.392;2022-09-09T08:57:09;5.10;;;3.03;;
5606;SDS011;2825;53.116;9.392;2022-09-09T08:59:43;4.83;;;2.47;;
5606;SDS011;2825;53.116;9.392;2022-09-09T09:10:39;3.10;;;2.30;;
5606;SDS011;2825;53.116;9.392;2022-09-09T09:16:06;3.60;;;2.60;;
5606;SDS011;2825;53.116;9.392;2022-09-09T09:18:54;5.13;;;2.40;;
5606;SDS011;2825;53.116;9.392;2022-09-09T09:24:01;2.73;;;2.43;;
5606;SDS011;2825;53.116;9.392;2022-09-09T09:26:30;6.43;;;2.83;;
5606;SDS011;2825;53.116;9.392;2022-09-09T09:28:59;6.30;;;3.23;;
5606;SDS011;2825;53.116;9.392;2022-09-09T09:31:33;6.00;;;3.07;;
5606;SDS011;2825;53.116;9.392;2022-09-09T09:33:58;5.07;;;2.53;;
5606;SDS011;2825;53.116;9.392;2022-09-09T09:36:37;3.37;;;3.07;;
5606;SDS011;2825;53.116;9.392;2022-09-09T09:39:07;8.70;;;4.13;;
5606;SDS011;2825;53.116;9.392;2022-09-09T09:41:41;6.13;;;3.80;;
5606;SDS011;2825;53.116;9.392;2022-09-09T09:49:39;7.13;;;3.70;;
5606;SDS011;2825;53.116;9.392;2022-09-09T09:52:16;3.53;;;3.23;;
5606;SDS011;2825;53.116;9.392;2022-09-09T09:54:49;3.73;;;3.43;;
5606;SDS011;2825;53.116;9.392;2022-09-09T09:57:17;4.20;;;3.20;;
5606;SDS011;2825;53.116;9.392;2022-09-09T09:59:48;3.47;;;3.07;;
5606;SDS011;2825;53.116;9.392;2022-09-09T10:02:15;3.50;;;3.03;;
5606;SDS011;2825;53.116;9.392;2022-09-09T10:04:43;4.60;;;2.50;;
5606;SDS011;2825;53.116;9.392;2022-09-09T10:07:15;7.47;;;3.00;;
5606;SDS011;2825;53.116;9.392;2022-09-09T10:09:44;5.23;;;3.00;;
5606;SDS011;2825;53.116;9.392;2022-09-09T10:14:52;7.97;;;3.10;;
5606;SDS011;2825;53.116;9.392;2022-09-09T10:22:50;3.00;;;2.00;;
5606;SDS011;2825;53.116;9.392;2022-09-09T10:31:15;6.30;;;2.20;;
5606;SDS011;2825;53.116;9.392;2022-09-09T10:33:51;5.97;;;2.63;;
5606;SDS011;2825;53.116;9.392;2022-09-09T10:36:27;4.67;;;2.63;;
5606;SDS011;2825;53.116;9.392;2022-09-09T10:39:04;6.63;;;2.50;;
5606;SDS011;2825;53.116;9.392;2022-09-09T10:55:33;4.87;;;2.70;;
5606;SDS011;2825;53.116;9.392;2022-09-09T10:58:10;4.40;;;2.10;;
5606;SDS011;2825;53.116;9.392;2022-09-09T11:00:46;3.73;;;2.23;;
5606;SDS011;2825;53.116;9.392;2022-09-09T11:03:22;3.37;;;2.40;;
5606;SDS011;2825;53.116;9.392;2022-09-09T11:06:00;2.93;;;2.63;;
5606;SDS011;2825;53.116;9.392;2022-09-09T11:08:38;4.23;;;2.60;;
5606;SDS011;2825;53.116;9.392;2022-09-09T11:13:39;3.43;;;2.40;;
5606;SDS011;2825;53.116;9.392;2022-09-09T11:16:19;4.27;;;2.10;;
5606;SDS011;2825;53.116;9.392;2022-09-09T11:18:46;6.70;;;1.93;;
5606;SDS011;2825;53.116;9.392;2022-09-09T11:21:21;5.10;;;2.70;;
5606;SDS011;2825;53.116;9.392;2022-09-09T11:24:03;5.30;;;2.90;;
5606;SDS011;2825;53.116;9.392;2022-09-09T11:26:39;3.43;;;2.37;;
5606;SDS011;2825;53.116;9.392;2022-09-09T11:34:37;3.10;;;1.97;;
5606;SDS011;2825;53.116;9.392;2022-09-09T11:42:45;2.47;;;1.40;;
5606;SDS011;2825;53.116;9.392;2022-09-09T11:47:51;1.97;;;1.77;;
5606;SDS011;2825;53.116;9.392;2022-09-09T11:52:50;4.23;;;1.83;;
5606;SDS011;2825;53.116;9.392;2022-09-09T11:55:32;3.63;;;1.77;;
5606;SDS011;2825;53.116;9.392;2022-09-09T11:58:02;2.60;;;1.80;;
5606;SDS011;2825;53.116;9.392;2022-09-09T12:03:02;1.77;;;1.67;;
5606;SDS011;2825;53.116;9.392;2022-09-09T12:05:37;5.50;;;2.00;;
5606;SDS011;2825;53.116;9.392;2022-09-09T12:08:06;2.10;;;1.60;;
5606;SDS011;2825;53.116;9.392;2022-09-09T12:10:38;3.30;;;1.60;;
5606;SDS011;2825;53.116;9.392;2022-09-09T12:13:18;5.73;;;1.50;;
5606;SDS011;2825;53.116;9.392;2022-09-09T12:15:56;5.00;;;1.20;;
5606;SDS011;2825;53.116;9.392;2022-09-09T12:18:34;2.50;;;1.60;;
5606;SDS011;2825;53.116;9.392;2022-09-09T12:21:11;3.23;;;2.97;;
5606;SDS011;2825;53.116;9.392;2022-09-09T12:24:00;2.60;;;1.77;;
5606;SDS011;2825;53.116;9.392;2022-09-09T12:26:35;3.70;;;1.50;;
5606;SDS011;2825;53.116;9.392;2022-09-09T12:31:45;2.30;;;1.70;;
5606;SDS011;2825;53.116;9.392;2022-09-09T12:36:54;5.00;;;2.23;;
5606;SDS011;2825;53.116;9.392;2022-09-09T12:41:57;2.50;;;2.23;;
5606;SDS011;2825;53.116;9.392;2022-09-09T12:44:23;7.23;;;3.20;;
5606;SDS011;2825;53.116;9.392;2022-09-09T12:46:50;2.93;;;2.67;;
5606;SDS011;2825;53.116;9.392;2022-09-09T12:52:06;2.90;;;2.70;;
5606;SDS011;2825;53.116;9.392;2022-09-09T12:54:38;8.07;;;3.60;;
5606;SDS011;2825;53.116;9.392;2022-09-09T12:57:11;6.20;;;1.63;;
5606;SDS011;2825;53.116;9.392;2022-09-09T12:59:39;2.17;;;1.97;;
5606;SDS011;2825;53.116;9.392;2022-09-09T13:04:49;7.53;;;1.83;;
5606;SDS011;2825;53.116;9.392;2022-09-09T13:07:16;3.22;;;1.90;;
5606;SDS011;2825;53.116;9.392;2022-09-09T13:09:44;2.30;;;1.60;;
5606;SDS011;2825;53.116;9.392;2022-09-09T13:12:13;6.83;;;3.03;;
5606;SDS011;2825;53.116;9.392;2022-09-09T13:14:48;5.20;;;3.60;;
5606;SDS011;2825;53.116;9.392;2022-09-09T13:19:50;6.20;;;4.00;;
5606;SDS011;2825;53.116;9.392;2022-09-09T13:22:29;4.03;;;2.90;;
5606;SDS011;2825;53.116;9.392;2022-09-09T13:25:13;4.30;;;2.37;;
5606;SDS011;2825;53.116;9.392;2022-09-09T13:30:33;3.83;;;3.47;;
5606;SDS011;2825;53.116;9.392;2022-09-09T13:35:54;4.83;;;2.80;;
5606;SDS011;2825;53.116;9.392;2022-09-09T13:38:29;2.10;;;1.90;;
5606;SDS011;2825;53.116;9.392;2022-09-09T13:43:29;5.60;;;2.70;;
5606;SDS011;2825;53.116;9.392;2022-09-09T13:45:59;6.37;;;4.13;;
5606;SDS011;2825;53.116;9.392;2022-09-09T13:48:27;6.23;;;3.27;;
5606;SDS011;2825;53.116;9.392;2022-09-09T13:50:59;8.70;;;4.73;;
5606;SDS011;2825;53.116;9.392;2022-09-09T13:53:26;3.27;;;2.97;;
5606;SDS011;2825;53.116;9.392;2022-09-09T13:55:52;2.40;;;2.20;;
5606;SDS011;2825;53.116;9.392;2022-09-09T13:58:18;2.43;;;2.23;;
5606;SDS011;2825;53.116;9.392;2022-09-09T14:00:44;4.80;;;3.17;;
5606;SDS011;2825;53.116;9.392;2022-09-09T14:03:11;2.10;;;1.90;;
5606;SDS011;2825;53.116;9.392;2022-09-09T14:05:37;6.70;;;2.93;;
5606;SDS011;2825;53.116;9.392;2022-09-09T14:08:07;3.50;;;1.90;;
5606;SDS011;2825;53.116;9.392;2022-09-09T14:10:36;4.47;;;2.70;;
5606;SDS011;2825;53.116;9.392;2022-09-09T14:13:02;2.40;;;2.20;;
5606;SDS011;2825;53.116;9.392;2022-09-09T14:15:28;7.23;;;3.00;;
5606;SDS011;2825;53.116;9.392;2022-09-09T14:17:54;3.20;;;2.40;;
5606;SDS011;2825;53.116;9.392;2022-09-09T14:20:20;6.63;;;3.80;;
5606;SDS011;2825;53.116;9.392;2022-09-09T14:22:46;5.90;;;3.00;;
5606;SDS011;2825;53.116;9.392;2022-09-09T14:25:11;3.43;;;3.00;;
5606;SDS011;2825;53.116;9.392;2022-09-09T14:27:40;3.00;;;2.80;;
5606;SDS011;2825;53.116;9.392;2022-09-09T14:30:07;4.60;;;2.60;;
5606;SDS011;2825;53.116;9.392;2022-09-09T14:32:34;2.50;;;2.03;;
5606;SDS011;2825;53.116;9.392;2022-09-09T14:35:00;2.47;;;1.73;;
5606;SDS011;2825;53.116;9.392;2022-09-09T14:37:26;2.77;;;1.87;;
5606;SDS011;2825;53.116;9.392;2022-09-09T14:39:52;4.60;;;2.17;;
5606;SDS011;2825;53.116;9.392;2022-09-09T14:42:19;2.33;;;1.70;;
5606;SDS011;2825;53.116;9.392;2022-09-09T14:44:44;2.60;;;1.33;;
5606;SDS011;2825;53.116;9.392;2022-09-09T14:47:10;1.73;;;1.63;;
5606;SDS011;2825;53.116;9.392;2022-09-09T14:49:36;3.73;;;2.00;;
5606;SDS011;2825;53.116;9.392;2022-09-09T14:52:02;1.97;;;1.67;;
5606;SDS011;2825;53.116;9.392;2022-09-09T14:54:29;1.83;;;1.57;;
5606;SDS011;2825;53.116;9.392;2022-09-09T14:56:55;4.13;;;2.63;;
5606;SDS011;2825;53.116;9.392;2022-09-09T14:59:21;3.53;;;2.10;;
5606;SDS011;2825;53.116;9.392;2022-09-09T15:01:47;6.60;;;2.00;;
5606;SDS011;2825;53.116;9.392;2022-09-09T15:04:13;4.93;;;2.20;;
5606;SDS011;2825;53.116;9.392;2022-09-09T15:06:43;4.37;;;2.37;;
5606;SDS011;2825;53.116;9.392;2022-09-09T15:09:12;4.83;;;2.47;;
5606;SDS011;2825;53.116;9.392;2022-09-09T15:11:38;4.40;;;2.53;;
5606;SDS011;2825;53.116;9.392;2022-09-09T15:14:04;2.87;;;2.13;;
5606;SDS011;2825;53.116;9.392;2022-09-09T15:16:30;3.57;;;2.73;;
5606;SDS011;2825;53.116;9.392;2022-09-09T15:18:57;5.33;;;2.97;;
5606;SDS011;2825;53.116;9.392;2022-09-09T15:21:24;3.87;;;2.33;;
5606;SDS011;2825;53.116;9.392;2022-09-09T15:23:52;3.37;;;2.40;;
5606;SDS011;2825;53.116;9.392;2022-09-09T15:26:18;6.23;;;2.30;;
5606;SDS011;2825;53.116;9.392;2022-09-09T15:28:45;2.50;;;1.73;;
5606;SDS011;2825;53.116;9.392;2022-09-09T15:31:19;3.30;;;2.40;;
5606;SDS011;2825;53.116;9.392;2022-09-09T15:33:51;4.53;;;3.10;;
5606;SDS011;2825;53.116;9.392;2022-09-09T15:36:26;5.70;;;2.90;;
5606;SDS011;2825;53.116;9.392;2022-09-09T15:39:20;6.07;;;2.97;;
5606;SDS011;2825;53.116;9.392;2022-09-09T15:41:46;7.90;;;3.10;;
5606;SDS011;2825;53.116;9.392;2022-09-09T15:44:13;4.63;;;2.50;;
5606;SDS011;2825;53.116;9.392;2022-09-09T15:46:44;4.47;;;3.07;;
5606;SDS011;2825;53.116;9.392;2022-09-09T15:49:14;3.80;;;2.57;;
5606;SDS011;2825;53.116;9.392;2022-09-09T15:51:51;4.47;;;2.93;;
5606;SDS011;2825;53.116;9.392;2022-09-09T15:54:22;3.10;;;2.40;;
5606;SDS011;2825;53.116;9.392;2022-09-09T15:56:53;7.53;;;2.97;;
5606;SDS011;2825;53.116;9.392;2022-09-09T15:59:21;4.15;;;3.50;;
5606;SDS011;2825;53.116;9.392;2022-09-09T16:01:52;6.50;;;3.10;;
5606;SDS011;2825;53.116;9.392;2022-09-09T16:04:19;3.17;;;2.70;;
5606;SDS011;2825;53.116;9.392;2022-09-09T16:06:48;8.27;;;2.90;;
5606;SDS011;2825;53.116;9.392;2022-09-09T16:09:15;3.70;;;2.60;;
5606;SDS011;2825;53.116;9.392;2022-09-09T16:11:41;4.73;;;3.10;;
5606;SDS011;2825;53.116;9.392;2022-09-09T16:14:07;3.40;;;2.87;;
5606;SDS011;2825;53.116;9.392;2022-09-09T16:16:33;4.30;;;2.60;;
5606;SDS011;2825;53.116;9.392;2022-09-09T16:19:01;2.30;;;2.10;;
5606;SDS011;2825;53.116;9.392;2022-09-09T16:21:31;7.33;;;3.23;;
5606;SDS011;2825;53.116;9.392;2022-09-09T16:23:59;2.33;;;1.73;;
5606;SDS011;2825;53.116;9.392;2022-09-09T16:26:28;6.43;;;3.27;;
5606;SDS011;2825;53.116;9.392;2022-09-09T16:28:55;4.60;;;2.93;;
5606;SDS011;2825;53.116;9.392;2022-09-09T16:31:24;3.60;;;2.40;;
5606;SDS011;2825;53.116;9.392;2022-09-09T16:33:50;4.63;;;3.40;;
5606;SDS011;2825;53.116;9.392;2022-09-09T16:36:18;3.60;;;3.27;;
5606;SDS011;2825;53.116;9.392;2022-09-09T16:38:47;3.87;;;3.30;;
5606;SDS011;2825;53.116;9.392;2022-09-09T16:41:16;4.83;;;3.00;;
5606;SDS011;2825;53.116;9.392;2022-09-09T16:43:42;5.67;;;2.67;;
5606;SDS011;2825;53.116;9.392;2022-09-09T16:46:15;6.00;;;4.20;;
5606;SDS011;2825;53.116;9.392;2022-09-09T16:48:43;5.87;;;3.23;;
5606;SDS011;2825;53.116;9.392;2022-09-09T16:51:16;5.53;;;3.20;;
5606;SDS011;2825;53.116;9.392;2022-09-09T16:53:48;5.23;;;4.00;;
5606;SDS011;2825;53.116;9.392;2022-09-09T16:56:15;3.73;;;3.43;;
5606;SDS011;2825;53.116;9.392;2022-09-09T16:58:43;7.13;;;3.50;;
5606;SDS011;2825;53.116;9.392;2022-09-09T17:01:14;6.07;;;3.50;;
5606;SDS011;2825;53.116;9.392;2022-09-09T17:03:39;4.17;;;3.50;;
5606;SDS011;2825;53.116;9.392;2022-09-09T17:06:09;6.27;;;3.40;;
5606;SDS011;2825;53.116;9.392;2022-09-09T17:08:36;5.00;;;3.20;;
5606;SDS011;2825;53.116;9.392;2022-09-09T17:11:04;3.30;;;2.60;;
5606;SDS011;2825;53.116;9.392;2022-09-09T17:13:42;3.10;;;2.90;;
5606;SDS011;2825;53.116;9.392;2022-09-09T17:16:09;5.27;;;3.10;;
5606;SDS011;2825;53.116;9.392;2022-09-09T17:18:35;3.53;;;3.13;;
5606;SDS011;2825;53.116;9.392;2022-09-09T17:21:02;5.83;;;3.07;;
5606;SDS011;2825;53.116;9.392;2022-09-09T17:23:33;4.30;;;3.90;;
5606;SDS011;2825;53.116;9.392;2022-09-09T17:26:03;5.68;;;3.90;;
5606;SDS011;2825;53.116;9.392;2022-09-09T17:28:33;3.73;;;3.33;;
5606;SDS011;2825;53.116;9.392;2022-09-09T17:30:59;4.13;;;3.43;;
5606;SDS011;2825;53.116;9.392;2022-09-09T17:33:29;7.40;;;3.40;;
5606;SDS011;2825;53.116;9.392;2022-09-09T17:36:30;5.67;;;3.37;;
5606;SDS011;2825;53.116;9.392;2022-09-09T17:38:49;4.37;;;3.53;;
5606;SDS011;2825;53.116;9.392;2022-09-09T17:41:16;6.80;;;4.00;;
5606;SDS011;2825;53.116;9.392;2022-09-09T17:43:44;4.40;;;3.33;;
5606;SDS011;2825;53.116;9.392;2022-09-09T17:48:47;5.60;;;2.90;;
5606;SDS011;2825;53.116;9.392;2022-09-09T17:51:15;2.93;;;2.60;;
5606;SDS011;2825;53.116;9.392;2022-09-09T17:53:46;3.47;;;2.20;;
5606;SDS011;2825;53.116;9.392;2022-09-09T17:56:14;3.20;;;3.00;;
5606;SDS011;2825;53.116;9.392;2022-09-09T17:58:41;3.20;;;2.90;;
5606;SDS011;2825;53.116;9.392;2022-09-09T18:01:09;4.17;;;3.83;;
5606;SDS011;2825;53.116;9.392;2022-09-09T18:03:40;4.47;;;3.20;;
5606;SDS011;2825;53.116;9.392;2022-09-09T18:06:11;3.67;;;2.70;;